Time;durP1;ratioP1;P1;durP2;ratioP2;P2;SDS_P1;SDS_P2;PMS_P1;PMS_P2;Temp;Humidity;BMP_temperature;BMP_pressure;BME280_temperature;BME280_humidity;BME280_pressure;Samples;Min_cycle;Max_cycle;Signal;HPM_P1;HPM_P2
2021/07/22 00:01:28;;;;;;;6.05;4.15;;;;;;;20.83;53.25;100726.13;10248003;28;20051;-62
2021/07/22 00:06:29;;;;;;;6.07;3.92;;;;;;;20.81;53.72;100733.59;10249250;28;20607;-61
2021/07/22 00:11:32;;;;;;;5.07;4.10;;;;;;;20.81;53.93;100731.72;10264455;28;20053;-61
2021/07/22 00:16:34;;;;;;;6.32;4.70;;;;;;;20.79;54.31;100731.09;10262871;28;20047;-61
2021/07/22 00:21:36;;;;;;;5.47;4.50;;;;;;;20.71;54.49;100725.72;10251595;28;20042;-60
2021/07/22 00:26:38;;;;;;;5.22;4.05;;;;;;;20.71;54.33;100723.00;10278730;28;20680;-61
2021/07/22 00:31:39;;;;;;;6.05;4.40;;;;;;;20.63;54.68;100714.91;10293468;28;20039;-60
2021/07/22 00:36:41;;;;;;;4.75;3.65;;;;;;;20.58;54.79;100728.97;10265807;28;20129;-60
2021/07/22 00:41:43;;;;;;;5.72;4.13;;;;;;;20.60;54.81;100729.63;10259863;28;20047;-60
2021/07/22 00:46:44;;;;;;;4.88;3.75;;;;;;;20.61;54.86;100738.56;10267087;28;20047;-60
2021/07/22 00:51:46;;;;;;;4.47;3.85;;;;;;;20.60;55.03;100726.09;10282330;28;20046;-60
2021/07/22 00:56:47;;;;;;;4.32;3.75;;;;;;;20.57;55.30;100726.44;10286485;28;20124;-59
2021/07/22 01:01:49;;;;;;;7.35;4.60;;;;;;;20.50;55.21;100712.78;10269594;28;20047;-61
2021/07/22 01:06:51;;;;;;;6.65;3.92;;;;;;;20.57;55.29;100718.34;10269588;28;20610;-60
2021/07/22 01:11:52;;;;;;;7.32;3.85;;;;;;;20.57;55.10;100702.94;10267357;28;20207;-60
2021/07/22 01:16:54;;;;;;;6.65;4.45;;;;;;;20.44;54.96;100700.81;10283835;28;20054;-60
2021/07/22 01:21:55;;;;;;;5.28;4.35;;;;;;;20.39;55.14;100710.50;10255580;28;20074;-60
2021/07/22 01:27:22;;;;;;;4.90;4.20;;;;;;;20.31;55.28;100709.50;10269935;28;20058;-60
2021/07/22 01:32:23;;;;;;;6.97;4.15;;;;;;;20.30;55.53;100698.88;10291086;28;20094;-61
2021/07/22 01:37:25;;;;;;;4.97;4.10;;;;;;;20.28;55.20;100704.47;10249499;28;20621;-60
2021/07/22 01:42:26;;;;;;;5.90;4.07;;;;;;;20.25;55.31;100699.41;10253242;28;20058;-59
2021/07/22 01:47:28;;;;;;;6.13;4.45;;;;;;;20.22;55.70;100699.75;10271537;28;20051;-60
2021/07/22 01:52:29;;;;;;;5.38;4.38;;;;;;;20.24;55.64;100707.69;10284485;28;20207;-61
2021/07/22 01:57:31;;;;;;;5.47;4.40;;;;;;;20.18;55.89;100700.28;10270532;28;20113;-60
2021/07/22 02:02:32;;;;;;;4.30;3.45;;;;;;;20.12;56.00;100702.66;10257951;28;20158;-60
2021/07/22 02:07:34;;;;;;;6.80;4.93;;;;;;;20.07;56.05;100696.94;10279544;28;20042;-60
2021/07/22 02:12:35;;;;;;;5.15;4.65;;;;;;;20.01;56.31;100694.94;10272291;28;20100;-60
2021/07/22 02:17:37;;;;;;;5.20;4.65;;;;;;;19.98;56.37;100708.78;10237928;28;20472;-60
2021/07/22 02:22:38;;;;;;;6.43;4.47;;;;;;;19.92;56.32;100704.06;10260950;28;20146;-60
2021/07/22 02:27:40;;;;;;;6.20;4.68;;;;;;;19.85;56.68;100698.53;10258355;28;20130;-61
2021/07/22 02:32:41;;;;;;;5.10;4.40;;;;;;;19.85;56.56;100695.00;10256630;28;20071;-60
2021/07/22 02:37:45;;;;;;;5.90;4.45;;;;;;;19.82;56.68;100696.19;10273258;28;20196;-61
2021/07/22 02:42:46;;;;;;;5.60;3.97;;;;;;;19.76;56.91;100704.94;10277559;28;20047;-61
2021/07/22 02:47:47;;;;;;;5.80;4.78;;;;;;;19.73;57.23;100700.72;10281543;28;20105;-61
2021/07/22 02:52:49;;;;;;;6.07;4.80;;;;;;;19.72;57.11;100693.63;10285247;28;20105;-60
2021/07/22 02:57:50;;;;;;;4.80;4.15;;;;;;;19.73;57.26;100694.50;10281373;28;20078;-61
2021/07/22 03:02:52;;;;;;;4.80;4.30;;;;;;;19.73;57.06;100692.63;10293355;28;20124;-61
2021/07/22 03:07:55;;;;;;;6.50;4.35;;;;;;;19.68;57.31;100696.84;10305556;28;20050;-60
2021/07/22 03:12:57;;;;;;;6.17;4.67;;;;;;;19.58;57.77;100697.06;10287192;28;20070;-59
2021/07/22 03:17:59;;;;;;;6.53;5.53;;;;;;;19.52;57.72;100708.56;10285900;28;20070;-60
2021/07/22 03:23:02;;;;;;;7.72;4.93;;;;;;;19.50;57.90;100706.03;10289122;28;20126;-60
2021/07/22 03:28:04;;;;;;;5.93;4.20;;;;;;;19.47;58.04;100705.50;10253474;28;20055;-60
2021/07/22 03:33:06;;;;;;;5.93;4.40;;;;;;;19.47;58.17;100702.81;10248221;28;20972;-60
2021/07/22 03:38:07;;;;;;;5.85;4.63;;;;;;;19.40;58.19;100684.59;10248140;28;20043;-60
2021/07/22 03:43:09;;;;;;;6.05;4.78;;;;;;;19.36;58.32;100691.34;10268468;28;20515;-60
2021/07/22 03:48:12;;;;;;;5.82;4.60;;;;;;;19.27;58.65;100686.97;10265645;28;20047;-60
2021/07/22 03:53:14;;;;;;;5.63;4.57;;;;;;;19.25;58.81;100686.31;10253100;28;20055;-61
2021/07/22 03:58:15;;;;;;;5.25;4.75;;;;;;;19.26;58.80;100693.41;10252354;28;20457;-59
2021/07/22 04:03:16;;;;;;;6.10;4.57;;;;;;;19.16;59.32;100693.56;10247201;28;20124;-60
2021/07/22 04:08:18;;;;;;;5.57;4.80;;;;;;;19.14;59.30;100694.72;10256344;28;20058;-59
2021/07/22 04:13:20;;;;;;;5.53;4.93;;;;;;;19.13;59.40;100702.00;10262556;28;20497;-61
2021/07/22 04:18:21;;;;;;;6.57;4.38;;;;;;;19.11;59.43;100705.84;10259460;28;20428;-61
2021/07/22 04:23:22;;;;;;;5.45;4.72;;;;;;;19.10;59.86;100698.78;10260057;28;20504;-60
2021/07/22 04:28:24;;;;;;;8.30;5.30;;;;;;;19.02;60.04;100713.97;10264104;28;20075;-60
2021/07/22 04:33:25;;;;;;;6.47;4.45;;;;;;;19.00;59.96;100709.75;10250421;28;20074;-60
2021/07/22 04:38:27;;;;;;;5.50;4.57;;;;;;;18.97;60.30;100716.31;10276549;28;20448;-60
2021/07/22 04:43:28;;;;;;;6.28;5.15;;;;;;;18.93;60.30;100714.97;10275434;28;20453;-61
2021/07/22 04:48:30;;;;;;;6.80;5.68;;;;;;;18.97;60.49;100721.69;10267804;28;20530;-61
2021/07/22 04:53:34;;;;;;;6.25;4.95;;;;;;;18.98;60.55;100711.78;10264961;28;20246;-60
2021/07/22 04:58:35;;;;;;;8.53;4.90;;;;;;;19.02;60.44;100713.97;10273041;28;20129;-61
2021/07/22 05:03:36;;;;;;;5.95;5.18;;;;;;;19.10;60.42;100717.69;10267117;28;20232;-61
2021/07/22 05:08:40;;;;;;;7.07;4.95;;;;;;;19.18;60.31;100715.81;10262157;28;20054;-61
2021/07/22 05:13:43;;;;;;;6.40;5.80;;;;;;;19.24;60.04;100722.38;10296980;28;20117;-62
2021/07/22 05:18:44;;;;;;;8.00;6.55;;;;;;;19.33;60.34;100721.38;10276074;28;20046;-61
2021/07/22 05:23:46;;;;;;;8.30;6.85;;;;;;;19.46;59.95;100730.84;10272772;28;20070;-62
2021/07/22 05:28:47;;;;;;;7.65;6.88;;;;;;;19.52;59.99;100735.53;10283480;28;20194;-59
2021/07/22 05:33:49;;;;;;;7.68;5.95;;;;;;;19.56;59.73;100732.34;10288920;28;20466;-62
2021/07/22 05:38:50;;;;;;;7.53;5.55;;;;;;;19.63;59.72;100742.44;10282698;28;20055;-65
2021/07/22 05:43:52;;;;;;;7.82;5.20;;;;;;;19.62;59.15;100736.19;10285524;28;20517;-60
2021/07/22 05:48:53;;;;;;;8.68;5.60;;;;;;;19.62;59.29;100736.19;10301874;28;20117;-60
2021/07/22 05:53:55;;;;;;;9.13;4.88;;;;;;;19.74;59.38;100729.44;10276032;28;20650;-59
2021/07/22 05:58:57;;;;;;;5.63;5.03;;;;;;;19.82;59.55;100741.28;10272052;28;20074;-60
2021/07/22 06:03:58;;;;;;;7.55;5.57;;;;;;;19.93;59.51;100732.78;10269401;28;20082;-60
2021/07/22 06:09:01;;;;;;;8.68;5.57;;;;;;;20.04;59.19;100731.56;10262170;28;20760;-60
2021/07/22 06:14:02;;;;;;;7.80;4.40;;;;;;;20.14;58.85;100733.03;10270905;28;20512;-60
2021/07/22 06:19:04;;;;;;;7.03;5.57;;;;;;;20.25;58.95;100729.13;10288462;28;20050;-60
2021/07/22 06:24:05;;;;;;;8.05;5.20;;;;;;;20.40;57.72;100737.34;10259907;28;20078;-61
2021/07/22 06:29:09;;;;;;;6.22;5.32;;;;;;;20.55;57.47;100733.88;10265626;28;20053;-61
2021/07/22 06:34:11;;;;;;;6.57;4.72;;;;;;;20.68;56.89;100731.47;10261518;28;20141;-61
2021/07/22 06:39:12;;;;;;;4.82;4.35;;;;;;;20.81;56.28;100736.31;10285994;28;20042;-59
2021/07/22 06:44:14;;;;;;;8.25;5.05;;;;;;;20.96;55.71;100739.91;10267817;28;20438;-59
2021/07/22 06:49:16;;;;;;;5.60;4.78;;;;;;;21.03;55.19;100731.91;10261537;28;20047;-60
2021/07/22 06:54:18;;;;;;;7.43;4.82;;;;;;;21.18;55.08;100742.78;10260638;28;20100;-60
2021/07/22 06:59:19;;;;;;;5.30;4.63;;;;;;;21.33;53.92;100740.13;10260937;28;20074;-62
2021/07/22 07:04:21;;;;;;;7.03;4.65;;;;;;;21.37;53.95;100731.47;10254987;28;20550;-61
2021/07/22 07:09:22;;;;;;;7.45;5.28;;;;;;;21.51;53.05;100738.00;10265041;28;20074;-60
2021/07/22 07:14:23;;;;;;;5.18;4.68;;;;;;;21.62;53.47;100738.53;10271111;28;20050;-60
2021/07/22 07:19:25;;;;;;;6.40;4.82;;;;;;;21.78;52.69;100732.13;10285092;28;20114;-60
2021/07/22 07:24:26;;;;;;;6.13;4.95;;;;;;;21.96;51.76;100738.00;10257216;28;20468;-61
2021/07/22 07:29:28;;;;;;;8.80;5.00;;;;;;;22.09;51.66;100733.84;10295974;28;20509;-62
2021/07/22 07:34:29;;;;;;;7.10;4.55;;;;;;;22.33;51.36;100736.25;10293265;28;20121;-61
2021/07/22 07:39:31;;;;;;;6.80;5.00;;;;;;;22.49;50.57;100732.50;10284148;28;20136;-63
2021/07/22 07:44:32;;;;;;;5.18;4.68;;;;;;;22.70;50.45;100734.41;10271548;28;20105;-62
2021/07/22 07:49:33;;;;;;;5.95;5.38;;;;;;;22.92;50.06;100724.41;10267489;28;20047;-61
2021/07/22 07:54:35;;;;;;;7.85;4.95;;;;;;;23.14;49.78;100718.19;10266037;28;20070;-62
2021/07/22 07:59:37;;;;;;;5.85;5.22;;;;;;;23.28;49.65;100714.53;10278233;28;20054;-62
2021/07/22 08:04:38;;;;;;;6.25;5.15;;;;;;;23.50;50.09;100726.19;10257278;28;20057;-62
2021/07/22 08:09:40;;;;;;;6.72;6.10;;;;;;;23.77;48.94;100720.97;10290806;28;20051;-62
2021/07/22 08:14:41;;;;;;;5.50;4.75;;;;;;;23.74;48.58;100716.75;10262702;28;20397;-61
2021/07/22 08:19:43;;;;;;;7.13;4.53;;;;;;;23.84;48.88;100708.25;10281585;28;20051;-61
2021/07/22 08:24:44;;;;;;;6.85;5.95;;;;;;;24.22;47.95;100702.41;10255086;28;20106;-61
2021/07/22 08:29:46;;;;;;;5.80;4.63;;;;;;;24.18;47.61;100698.41;10258273;28;20047;-61
2021/07/22 08:34:47;;;;;;;6.82;5.18;;;;;;;24.41;47.14;100694.50;10260722;28;20117;-61
2021/07/22 08:39:51;;;;;;;5.50;4.65;;;;;;;24.73;45.67;100692.16;10288764;28;20072;-62
2021/07/22 08:44:53;;;;;;;8.27;4.15;;;;;;;24.74;45.00;100691.06;10288882;28;20097;-63
2021/07/22 08:49:55;;;;;;;6.75;5.05;;;;;;;24.84;44.63;100683.34;10260421;28;20058;-62
2021/07/22 08:54:56;;;;;;;5.78;4.88;;;;;;;25.05;44.68;100680.44;10262083;28;20058;-61
2021/07/22 08:59:59;;;;;;;6.00;5.10;;;;;;;25.45;43.93;100673.34;10264163;28;20117;-61
2021/07/22 09:05:07;;;;;;;5.18;4.63;;;;;;;25.82;42.92;100679.13;10292787;28;20156;-61
2021/07/22 09:10:12;;;;;;;6.68;5.85;;;;;;;26.04;40.34;100666.09;10291572;28;20054;-62
2021/07/22 09:15:35;;;;;;;4.90;4.43;;;;;;;26.24;39.12;100663.25;10276461;28;20035;-62
2021/07/22 09:20:39;;;;;;;6.22;4.82;;;;;;;26.12;39.46;100671.28;10269665;28;20569;-62
2021/07/22 09:25:43;;;;;;;6.43;4.43;;;;;;;26.55;39.12;100669.81;10289056;28;20120;-62
2021/07/22 09:31:01;;;;;;;8.00;5.05;;;;;;;27.11;37.12;100666.31;10304585;28;20074;-62
2021/07/22 09:36:03;;;;;;;6.15;5.55;;;;;;;27.51;34.84;100671.41;10278622;28;20078;-63
2021/07/22 09:41:04;;;;;;;6.07;5.43;;;;;;;27.58;34.15;100670.50;10271165;28;20042;-63
2021/07/22 09:46:07;;;;;;;6.40;5.72;;;;;;;27.82;33.58;100660.59;10277576;28;20132;-63
2021/07/22 09:51:28;;;;;;;;;;;;;;;28.05;33.40;100668.13;10286849;28;20093;-63
2021/07/22 09:56:37;;;;;;;5.95;4.93;;;;;;;28.50;33.60;100656.78;10269355;28;19949;-63
2021/07/22 10:01:44;;;;;;;5.57;5.00;;;;;;;28.60;32.61;100661.72;10294074;28;20049;-63
2021/07/22 10:06:47;;;;;;;7.07;5.18;;;;;;;28.81;32.15;100657.63;10274662;28;20043;-63
2021/07/22 10:11:50;;;;;;;6.10;5.47;;;;;;;29.03;31.95;100657.03;10291536;28;20412;-63
2021/07/22 10:16:55;;;;;;;5.93;5.38;;;;;;;29.16;31.19;100643.13;10286471;28;20061;-63
2021/07/22 10:22:00;;;;;;;6.25;5.10;;;;;;;29.53;30.07;100636.56;10272132;28;20738;-63
2021/07/22 10:27:06;;;;;;;6.72;5.47;;;;;;;30.10;29.74;100639.47;10271450;28;20075;-66
2021/07/22 10:32:07;;;;;;;6.03;5.15;;;;;;;29.59;30.73;100636.47;10300529;28;20071;-63
2021/07/22 10:37:09;;;;;;;9.95;4.53;;;;;;;30.47;28.95;100628.09;10277841;28;20077;-62
2021/07/22 10:42:46;;;;;;;6.07;5.38;;;;;;;30.16;29.73;100623.91;10286529;28;20066;-62
2021/07/22 10:48:01;;;;;;;5.40;4.80;;;;;;;30.98;27.81;100616.31;10261241;28;20058;-62
2021/07/22 10:53:04;;;;;;;5.47;5.00;;;;;;;31.59;27.42;100619.19;10285455;28;20192;-62
2021/07/22 10:58:24;;;;;;;7.07;5.97;;;;;;;31.88;27.16;100613.50;10279177;28;20050;-62
2021/07/22 11:08:29;;;;;;;6.20;5.60;;;;;;;31.31;27.23;100612.72;10225211;28;20106;-58
2021/07/22 11:13:48;;;;;;;5.65;5.10;;;;;;;31.98;25.77;100605.34;10250651;28;20058;-58
2021/07/22 11:18:52;;;;;;;6.20;5.60;;;;;;;32.31;25.68;100595.28;10263306;28;20049;-59
2021/07/22 11:23:59;;;;;;;5.65;5.07;;;;;;;32.36;25.05;100587.03;10267539;28;20050;-57
2021/07/22 11:29:03;;;;;;;5.57;4.82;;;;;;;31.88;26.16;100594.22;10270514;28;20051;-56
2021/07/22 11:34:05;;;;;;;5.75;5.20;;;;;;;31.13;27.39;100577.25;10265308;28;20471;-60
2021/07/22 11:39:07;;;;;;;6.68;5.70;;;;;;;30.90;26.63;100579.09;10265419;28;20665;-59
2021/07/22 11:44:10;;;;;;;6.72;6.13;;;;;;;31.18;26.41;100580.06;10261384;28;20043;-57
2021/07/22 11:49:14;;;;;;;5.90;5.05;;;;;;;31.13;27.72;100566.28;10263587;28;20050;-58
2021/07/22 11:54:18;;;;;;;5.78;5.28;;;;;;;31.68;26.89;100579.13;10264159;28;20051;-57
2021/07/22 11:59:31;;;;;;;5.03;4.43;;;;;;;32.01;26.25;100571.81;10263346;28;20042;-57
2021/07/22 12:04:34;;;;;;;6.65;5.97;;;;;;;31.87;25.10;100565.03;10264238;28;20047;-57
2021/07/22 12:09:56;;;;;;;6.75;6.13;;;;;;;31.69;25.82;100555.19;10269091;28;20467;-58
2021/07/22 12:15:07;;;;;;;6.10;5.03;;;;;;;32.04;26.33;100554.75;10265290;28;20496;-60
2021/07/22 12:20:09;;;;;;;6.07;5.47;;;;;;;31.77;26.15;100556.66;10262775;28;20720;-59
2021/07/22 12:25:18;;;;;;;7.38;6.15;;;;;;;32.13;26.08;100543.28;10270021;28;20047;-56
2021/07/22 12:30:24;;;;;;;6.78;5.68;;;;;;;32.51;25.78;100538.69;10267248;28;20077;-57
2021/07/22 12:35:44;;;;;;;6.95;5.35;;;;;;;32.41;25.59;100536.69;10277690;28;20598;-58
2021/07/22 12:41:04;;;;;;;5.85;5.25;;;;;;;31.70;26.72;100523.84;10269728;28;20220;-59
2021/07/22 12:46:15;;;;;;;5.78;5.28;;;;;;;31.95;27.28;100527.94;10264138;28;20047;-57
2021/07/22 12:51:22;;;;;;;6.53;5.30;;;;;;;31.73;26.69;100528.84;10300371;28;20046;-59
2021/07/22 12:56:24;;;;;;;6.00;5.40;;;;;;;31.45;27.52;100524.34;10266001;28;20503;-56
2021/07/22 13:01:25;;;;;;;188.00;23.13;;;;;;;31.54;27.36;100522.78;10268549;28;20105;-58
2021/07/22 13:06:27;;;;;;;6.57;5.28;;;;;;;31.44;26.68;100500.69;10274474;28;20215;-56
2021/07/22 13:11:29;;;;;;;5.95;5.00;;;;;;;31.36;27.44;100500.06;10270337;28;20495;-59
2021/07/22 13:16:30;;;;;;;5.78;5.07;;;;;;;31.44;26.79;100492.44;10273038;28;20113;-56
2021/07/22 13:21:32;;;;;;;5.32;4.82;;;;;;;31.19;28.00;100504.78;10269213;28;20039;-56
2021/07/22 13:26:33;;;;;;;7.45;5.30;;;;;;;31.00;28.09;100495.97;10266346;28;20121;-57
2021/07/22 13:31:36;;;;;;;5.30;4.80;;;;;;;30.77;27.88;100481.34;10261499;28;20047;-57
2021/07/22 13:36:43;;;;;;;5.63;4.35;;;;;;;30.72;27.53;100485.97;10277919;28;20153;-60
2021/07/22 13:41:44;;;;;;;4.35;3.95;;;;;;;30.58;28.70;100478.06;10265800;28;20098;-58
2021/07/22 13:46:46;;;;;;;5.60;4.32;;;;;;;30.78;28.33;100484.94;10272056;28;20050;-56
2021/07/22 13:51:47;;;;;;;4.47;4.07;;;;;;;30.85;27.98;100482.81;10265681;28;20058;-59
2021/07/22 13:56:49;;;;;;;4.80;4.20;;;;;;;30.91;28.02;100459.84;10266348;28;20113;-57
2021/07/22 14:01:50;;;;;;;4.20;3.80;;;;;;;30.65;28.14;100466.91;10266916;28;20077;-58
2021/07/22 14:06:52;;;;;;;;;;;;;;;30.32;28.67;100466.63;10267597;28;20704;-58
2021/07/22 14:11:54;;;;;;;7.03;4.45;;;;;;;30.36;28.97;100468.91;10264616;28;19921;-57
2021/07/22 14:16:55;;;;;;;5.22;4.32;;;;;;;30.08;29.61;100463.22;10269894;28;20110;-57
2021/07/22 14:21:56;;;;;;;4.80;3.97;;;;;;;29.83;30.34;100458.13;10267058;28;20047;-58
2021/07/22 14:26:58;;;;;;;5.73;4.37;;;;;;;29.40;30.40;100457.56;10258597;28;20277;-56
2021/07/22 14:32:00;;;;;;;4.97;4.30;;;;;;;29.45;30.44;100448.59;10262649;28;20415;-57
2021/07/22 14:37:03;;;;;;;8.48;4.60;;;;;;;29.65;29.95;100448.16;10263252;28;20732;-56
2021/07/22 14:42:05;;;;;;;4.47;3.83;;;;;;;29.49;30.07;100452.50;10266204;28;20051;-59
2021/07/22 14:47:06;;;;;;;5.53;4.07;;;;;;;29.21;30.11;100447.84;10263744;28;20725;-56
2021/07/22 14:52:08;;;;;;;5.00;4.50;;;;;;;29.16;30.80;100445.78;10264136;28;20043;-58
2021/07/22 14:57:09;;;;;;;4.37;3.77;;;;;;;29.03;31.11;100435.09;10264423;28;20074;-59
2021/07/22 15:02:10;;;;;;;5.17;4.57;;;;;;;29.15;31.01;100444.13;10264596;28;20054;-57
2021/07/22 15:07:12;;;;;;;5.05;4.55;;;;;;;29.22;31.37;100436.63;10268220;28;20175;-59
2021/07/22 15:12:14;;;;;;;6.10;4.77;;;;;;;29.09;31.96;100439.63;10265229;28;20077;-58
2021/07/22 15:17:17;;;;;;;4.85;4.30;;;;;;;28.92;32.08;100434.06;10269283;28;20058;-57
2021/07/22 15:22:18;;;;;;;5.95;4.00;;;;;;;28.78;32.39;100435.38;10264311;28;20038;-58
2021/07/22 15:27:21;;;;;;;5.28;3.88;;;;;;;28.86;32.39;100443.25;10264393;28;20055;-56
2021/07/22 15:32:22;;;;;;;5.57;4.37;;;;;;;28.76;32.70;100419.19;10262529;28;20066;-55
2021/07/22 15:37:24;;;;;;;6.40;4.30;;;;;;;28.60;32.95;100430.88;10265105;28;20070;-61
2021/07/22 15:42:25;;;;;;;8.03;4.83;;;;;;;28.51;33.26;100428.47;10269567;28;20050;-56
2021/07/22 15:47:27;;;;;;;6.82;4.65;;;;;;;28.31;33.93;100419.78;10267269;28;20753;-57
2021/07/22 15:52:28;;;;;;;6.03;4.50;;;;;;;28.20;33.97;100422.25;10267854;28;20765;-57
2021/07/22 15:57:32;;;;;;;8.77;4.95;;;;;;;28.13;34.18;100427.00;10263759;28;20074;-59
2021/07/22 16:02:35;;;;;;;5.18;4.35;;;;;;;27.80;34.46;100411.09;10239831;28;20057;-56
2021/07/22 16:07:40;;;;;;;4.68;3.92;;;;;;;27.77;34.66;100412.38;10270173;28;20078;-56
2021/07/22 16:12:41;;;;;;;4.80;4.30;;;;;;;26.56;35.33;100333.03;10266040;28;20436;-56
2021/07/22 16:17:43;;;;;;;5.10;4.50;;;;;;;26.89;36.70;100413.75;10268644;28;20051;-55
2021/07/22 16:22:46;;;;;;;5.00;4.40;;;;;;;26.87;36.97;100419.44;10248680;28;20061;-55
2021/07/22 16:27:47;;;;;;;6.28;5.68;;;;;;;26.89;37.10;100408.28;10260175;28;20973;-58
2021/07/22 16:32:50;;;;;;;7.75;5.78;;;;;;;26.73;37.56;100391.44;10273440;28;20054;-54
2021/07/22 16:37:58;;;;;;;7.88;5.28;;;;;;;26.70;37.25;100405.56;10251283;28;20121;-56
2021/07/22 16:43:00;;;;;;;5.15;4.65;;;;;;;26.61;37.59;100404.16;10263914;28;20047;-55
2021/07/22 16:48:01;;;;;;;5.22;4.72;;;;;;;26.32;38.61;100403.81;10266231;28;20098;-55
2021/07/22 16:53:03;;;;;;;8.60;7.30;;;;;;;26.18;38.17;100372.25;10259224;28;20102;-56
2021/07/22 16:58:04;;;;;;;6.07;5.53;;;;;;;26.18;38.04;100391.34;10277772;28;20104;-57
2021/07/22 17:03:06;;;;;;;5.30;4.22;;;;;;;26.11;37.82;100386.78;10263882;28;20069;-56
2021/07/22 17:08:07;;;;;;;4.53;4.13;;;;;;;25.95;38.67;100390.03;10252677;28;20533;-56
2021/07/22 17:13:09;;;;;;;6.15;4.90;;;;;;;26.01;41.59;100385.63;10292092;22;20105;-63
2021/07/22 17:18:10;;;;;;;5.00;4.38;;;;;;;25.97;40.93;100389.81;10296560;28;20073;-64
2021/07/22 17:23:12;;;;;;;6.35;4.78;;;;;;;25.83;40.19;100375.44;10334902;28;20144;-63
2021/07/22 17:28:14;;;;;;;6.60;4.53;;;;;;;25.73;39.43;100375.91;10331163;28;20150;-61
2021/07/22 17:33:15;;;;;;;6.03;5.32;;;;;;;25.66;39.34;100369.69;10324077;28;20081;-62
2021/07/22 17:38:17;;;;;;;16.30;14.63;;;;;;;25.54;39.51;100366.84;10328394;28;20054;-61
2021/07/22 17:43:19;;;;;;;13.00;11.73;;;;;;;25.51;39.28;100376.28;10332977;28;20084;-60
2021/07/22 17:48:20;;;;;;;6.95;5.45;;;;;;;25.41;39.52;100367.75;10319579;28;20074;-66
2021/07/22 17:53:22;;;;;;;5.45;4.47;;;;;;;25.29;39.60;100364.84;10318353;28;20124;-61
2021/07/22 17:58:23;;;;;;;8.27;6.10;;;;;;;25.30;39.22;100368.47;10315805;28;20066;-62
2021/07/22 18:03:25;;;;;;;5.30;4.55;;;;;;;25.15;40.06;100368.72;10317913;28;20070;-62
2021/07/22 18:08:26;;;;;;;7.07;4.05;;;;;;;25.09;39.83;100370.41;10324150;28;20050;-61
2021/07/22 18:13:28;;;;;;;6.13;3.75;;;;;;;25.05;39.84;100369.16;10321200;28;20129;-61
2021/07/22 18:18:31;;;;;;;4.93;4.22;;;;;;;25.04;39.95;100357.44;10332913;28;20046;-62
2021/07/22 18:23:33;;;;;;;5.80;3.85;;;;;;;24.99;40.01;100359.97;10331599;28;20188;-62
2021/07/22 18:28:35;;;;;;;6.00;4.17;;;;;;;24.97;40.39;100356.63;10320264;28;20504;-62
2021/07/22 18:33:49;;;;;;;4.90;4.18;;;;;;;24.96;40.42;100367.75;10317976;28;20046;-62
2021/07/22 18:38:50;;;;;;;4.85;4.30;;;;;;;24.86;40.39;100360.00;10339331;28;20069;-62
2021/07/22 18:43:52;;;;;;;7.88;4.97;;;;;;;24.75;40.68;100366.13;10323277;28;20132;-62
2021/07/22 18:48:53;;;;;;;5.80;4.47;;;;;;;24.73;40.50;100365.53;10328927;28;20518;-61
2021/07/22 18:53:55;;;;;;;6.93;5.25;;;;;;;24.66;40.42;100366.34;10329588;28;20070;-62
2021/07/22 18:58:56;;;;;;;6.75;5.10;;;;;;;24.59;40.83;100364.72;10322513;28;20144;-62
2021/07/22 19:03:58;;;;;;;7.47;5.07;;;;;;;24.54;41.27;100362.59;10331437;28;20042;-62
2021/07/22 19:09:00;;;;;;;7.38;5.28;;;;;;;24.47;41.64;100361.78;10338137;28;20569;-61
2021/07/22 19:14:02;;;;;;;7.80;4.90;;;;;;;24.40;41.81;100366.41;10324722;28;20077;-62
2021/07/22 19:19:04;;;;;;;4.82;4.18;;;;;;;24.28;41.67;100368.94;10329280;28;20042;-62
2021/07/22 19:24:06;;;;;;;7.05;4.55;;;;;;;24.18;41.12;100370.22;10330572;28;20128;-61
2021/07/22 19:29:08;;;;;;;5.05;4.00;;;;;;;24.16;41.38;100380.44;10326385;28;20058;-61
2021/07/22 19:34:10;;;;;;;4.72;3.97;;;;;;;24.11;41.51;100377.53;10328349;28;20143;-61
2021/07/22 19:39:11;;;;;;;8.05;4.85;;;;;;;24.04;42.01;100373.16;10324337;28;20475;-62
2021/07/22 19:44:13;;;;;;;8.80;6.60;;;;;;;23.96;42.06;100375.03;10331122;28;20073;-63
2021/07/22 19:49:15;;;;;;;5.97;5.38;;;;;;;23.89;42.23;100376.88;10332968;28;20046;-62
2021/07/22 19:54:16;;;;;;;6.47;4.55;;;;;;;23.83;42.30;100375.81;10327542;28;20284;-62
2021/07/22 19:59:17;;;;;;;5.93;4.57;;;;;;;23.77;42.91;100381.25;10326494;28;20046;-62
2021/07/22 20:04:19;;;;;;;7.55;5.28;;;;;;;23.72;42.84;100386.44;10328217;28;20085;-62
2021/07/22 20:09:20;;;;;;;6.03;4.90;;;;;;;23.65;42.86;100381.84;10330627;28;20077;-61
2021/07/22 20:14:22;;;;;;;6.93;4.72;;;;;;;23.59;43.13;100379.97;10334859;28;20046;-62
2021/07/22 20:19:23;;;;;;;7.55;5.82;;;;;;;23.50;43.67;100378.47;10330836;28;20138;-62
2021/07/22 20:24:25;;;;;;;7.32;4.65;;;;;;;23.37;43.72;100373.84;10330330;28;20065;-62
2021/07/22 20:29:28;;;;;;;8.05;4.97;;;;;;;23.34;44.11;100382.41;10314003;28;20139;-62
2021/07/22 20:34:29;;;;;;;5.38;4.88;;;;;;;23.29;44.32;100380.28;10311314;28;20049;-61
2021/07/22 20:39:31;;;;;;;7.72;5.45;;;;;;;23.26;44.74;100378.00;10320750;28;20496;-62
2021/07/22 20:44:33;;;;;;;7.43;5.38;;;;;;;23.22;44.94;100376.72;10345758;28;20049;-62
2021/07/22 20:49:34;;;;;;;6.25;5.30;;;;;;;23.14;45.10;100368.75;10341931;28;20073;-61
2021/07/22 20:54:36;;;;;;;8.20;5.07;;;;;;;23.09;45.19;100365.81;10330552;28;20064;-61
2021/07/22 20:59:38;;;;;;;7.43;5.25;;;;;;;22.99;45.10;100370.78;10337852;28;20049;-61
2021/07/22 21:04:40;;;;;;;6.43;4.93;;;;;;;22.65;46.28;100364.34;10348710;28;20053;-60
2021/07/22 21:09:42;;;;;;;6.63;4.95;;;;;;;22.36;47.32;100366.25;10341918;28;20057;-61
2021/07/22 21:14:44;;;;;;;8.17;5.10;;;;;;;22.09;48.34;100366.03;10344690;28;20049;-61
2021/07/22 21:19:46;;;;;;;7.18;5.47;;;;;;;22.02;49.16;100375.97;10342066;28;20120;-62
2021/07/22 21:24:48;;;;;;;8.07;5.13;;;;;;;21.76;49.25;100371.16;10338689;28;20072;-61
2021/07/22 21:29:49;;;;;;;4.75;4.13;;;;;;;21.64;49.16;100362.72;10337217;28;20065;-61
2021/07/22 21:34:50;;;;;;;9.55;5.15;;;;;;;21.51;49.58;100371.53;10339056;28;20045;-61
2021/07/22 21:39:52;;;;;;;7.82;4.63;;;;;;;21.56;49.70;100370.94;10342948;28;20046;-60
2021/07/22 21:44:53;;;;;;;9.38;5.35;;;;;;;21.65;49.58;100362.50;10342191;28;20068;-61
2021/07/22 21:49:55;;;;;;;6.90;4.15;;;;;;;21.52;49.25;100371.34;10342294;28;20141;-60
2021/07/22 21:54:57;;;;;;;6.25;4.85;;;;;;;21.47;49.66;100365.63;10343201;28;20523;-60
2021/07/22 21:59:58;;;;;;;4.82;4.30;;;;;;;21.75;49.16;100375.72;10341556;28;20046;-61
2021/07/22 22:04:59;;;;;;;7.38;4.80;;;;;;;21.84;49.06;100380.00;10340167;28;20224;-61
2021/07/22 22:10:03;;;;;;;7.18;5.10;;;;;;;21.91;48.89;100379.22;10332561;28;20053;-59
2021/07/22 22:15:05;;;;;;;7.25;5.38;;;;;;;21.89;49.05;100374.81;10339864;28;20116;-62
2021/07/22 22:20:07;;;;;;;6.75;5.03;;;;;;;21.87;49.13;100370.63;10341394;28;20078;-60
2021/07/22 22:25:10;;;;;;;6.05;5.45;;;;;;;21.85;49.82;100368.09;10339351;28;20321;-61
2021/07/22 22:30:12;;;;;;;6.70;6.03;;;;;;;21.82;50.02;100365.78;10337351;28;20046;-62
2021/07/22 22:35:13;;;;;;;9.13;6.20;;;;;;;21.83;49.85;100369.34;10337200;28;20061;-62
2021/07/22 22:40:15;;;;;;;10.75;6.88;;;;;;;21.80;50.22;100357.03;10330052;28;20062;-62
2021/07/22 22:45:17;;;;;;;6.57;5.10;;;;;;;21.73;50.36;100358.00;10340810;28;20085;-60
2021/07/22 22:50:18;;;;;;;7.65;5.38;;;;;;;21.19;51.11;100360.13;10345198;28;20139;-60
2021/07/22 22:55:19;;;;;;;5.97;5.22;;;;;;;21.30;51.61;100364.19;10338158;28;20057;-61
2021/07/22 23:00:21;;;;;;;5.07;4.50;;;;;;;21.47;51.35;100371.06;10335581;28;21145;-61
2021/07/22 23:05:22;;;;;;;6.53;4.72;;;;;;;21.49;51.33;100374.41;10345051;28;20116;-61
2021/07/22 23:10:24;;;;;;;9.15;5.15;;;;;;;21.51;50.85;100371.53;10337506;28;20522;-60
2021/07/22 23:15:25;;;;;;;8.35;5.53;;;;;;;21.50;51.03;100376.13;10348954;22;20066;-57